sensor_id;sensor_type;location;lat;lon;timestamp;temperature;humidity
25811;DHT22;13645;52.460;13.910;2023-07-09T00:01:15;18.60;1.00
25811;DHT22;13645;52.460;13.910;2023-07-09T00:03:45;18.60;1.00
25811;DHT22;13645;52.460;13.910;2023-07-09T00:06:15;18.60;1.00
25811;DHT22;13645;52.460;13.910;2023-07-09T00:08:44;18.60;1.00
25811;DHT22;13645;52.460;13.910;2023-07-09T00:11:13;18.60;1.00
25811;DHT22;13645;52.460;13.910;2023-07-09T00:13:40;18.70;1.00
25811;DHT22;13645;52.460;13.910;2023-07-09T00:16:13;18.60;1.00
25811;DHT22;13645;52.460;13.910;2023-07-09T00:18:40;18.50;1.00
25811;DHT22;13645;52.460;13.910;2023-07-09T00:21:07;18.50;1.00
25811;DHT22;13645;52.460;13.910;2023-07-09T00:23:34;18.40;1.00
25811;DHT22;13645;52.460;13.910;2023-07-09T00:26:01;18.30;1.00
25811;DHT22;13645;52.460;13.910;2023-07-09T00:28:30;18.20;1.00
25811;DHT22;13645;52.460;13.910;2023-07-09T00:30:57;18.10;1.00
25811;DHT22;13645;52.460;13.910;2023-07-09T00:33:24;18.10;1.00
25811;DHT22;13645;52.460;13.910;2023-07-09T00:35:58;18.00;1.00
25811;DHT22;13645;52.460;13.910;2023-07-09T00:38:25;18.00;1.00
25811;DHT22;13645;52.460;13.910;2023-07-09T00:41:04;18.00;1.00
25811;DHT22;13645;52.460;13.910;2023-07-09T00:43:36;17.90;1.00
25811;DHT22;13645;52.460;13.910;2023-07-09T00:49:00;17.80;1.00
25811;DHT22;13645;52.460;13.910;2023-07-09T00:51:28;17.70;1.00
25811;DHT22;13645;52.460;13.910;2023-07-09T00:54:00;17.60;1.00
25811;DHT22;13645;52.460;13.910;2023-07-09T00:56:31;17.60;1.00
25811;DHT22;13645;52.460;13.910;2023-07-09T00:59:00;17.60;1.00
25811;DHT22;13645;52.460;13.910;2023-07-09T01:01:32;17.50;1.00
25811;DHT22;13645;52.460;13.910;2023-07-09T01:04:00;17.50;1.00
25811;DHT22;13645;52.460;13.910;2023-07-09T01:06:43;17.50;1.00
25811;DHT22;13645;52.460;13.910;2023-07-09T01:09:10;17.40;1.00
25811;DHT22;13645;52.460;13.910;2023-07-09T01:11:37;17.40;1.00
25811;DHT22;13645;52.460;13.910;2023-07-09T01:14:07;17.40;1.00
25811;DHT22;13645;52.460;13.910;2023-07-09T01:16:37;17.50;1.00
25811;DHT22;13645;52.460;13.910;2023-07-09T01:19:06;17.40;1.00
25811;DHT22;13645;52.460;13.910;2023-07-09T01:21:33;17.40;1.00
25811;DHT22;13645;52.460;13.910;2023-07-09T01:24:15;17.40;1.00
25811;DHT22;13645;52.460;13.910;2023-07-09T01:26:46;17.40;1.00
25811;DHT22;13645;52.460;13.910;2023-07-09T01:29:13;17.40;1.00
25811;DHT22;13645;52.460;13.910;2023-07-09T01:31:40;17.40;1.00
25811;DHT22;13645;52.460;13.910;2023-07-09T01:34:06;17.30;1.00
25811;DHT22;13645;52.460;13.910;2023-07-09T01:36:34;17.30;1.00
25811;DHT22;13645;52.460;13.910;2023-07-09T01:39:01;17.20;1.00
25811;DHT22;13645;52.460;13.910;2023-07-09T01:41:28;17.20;1.00
25811;DHT22;13645;52.460;13.910;2023-07-09T01:43:55;17.10;1.00
25811;DHT22;13645;52.460;13.910;2023-07-09T01:46:22;17.10;1.00
25811;DHT22;13645;52.460;13.910;2023-07-09T01:48:48;17.00;1.00
25811;DHT22;13645;52.460;13.910;2023-07-09T01:51:16;17.00;1.00
25811;DHT22;13645;52.460;13.910;2023-07-09T01:53:44;17.00;1.00
25811;DHT22;13645;52.460;13.910;2023-07-09T01:56:11;16.90;1.00
25811;DHT22;13645;52.460;13.910;2023-07-09T01:58:38;16.90;3.90
25811;DHT22;13645;52.460;13.910;2023-07-09T02:01:09;16.80;7.80
25811;DHT22;13645;52.460;13.910;2023-07-09T02:03:36;16.80;7.00
25811;DHT22;13645;52.460;13.910;2023-07-09T02:06:03;16.80;12.70
25811;DHT22;13645;52.460;13.910;2023-07-09T02:08:37;16.70;18.10
25811;DHT22;13645;52.460;13.910;2023-07-09T02:11:04;16.70;14.90
25811;DHT22;13645;52.460;13.910;2023-07-09T02:13:31;16.70;18.80
25811;DHT22;13645;52.460;13.910;2023-07-09T02:15:58;16.70;17.70
25811;DHT22;13645;52.460;13.910;2023-07-09T02:18:27;16.70;17.80
25811;DHT22;13645;52.460;13.910;2023-07-09T02:20:54;16.70;20.20
25811;DHT22;13645;52.460;13.910;2023-07-09T02:23:26;16.70;25.00
25811;DHT22;13645;52.460;13.910;2023-07-09T02:25:53;16.60;21.40
25811;DHT22;13645;52.460;13.910;2023-07-09T02:28:20;16.60;28.50
25811;DHT22;13645;52.460;13.910;2023-07-09T02:30:47;16.60;30.70
25811;DHT22;13645;52.460;13.910;2023-07-09T02:33:14;16.50;43.40
25811;DHT22;13645;52.460;13.910;2023-07-09T02:35:41;16.50;40.30
25811;DHT22;13645;52.460;13.910;2023-07-09T02:38:07;16.50;43.00
25811;DHT22;13645;52.460;13.910;2023-07-09T02:40:34;16.50;48.80
25811;DHT22;13645;52.460;13.910;2023-07-09T02:43:01;16.50;44.40
25811;DHT22;13645;52.460;13.910;2023-07-09T02:45:28;16.40;50.30
25811;DHT22;13645;52.460;13.910;2023-07-09T02:47:54;16.50;52.10
25811;DHT22;13645;52.460;13.910;2023-07-09T02:50:21;16.50;34.90
25811;DHT22;13645;52.460;13.910;2023-07-09T02:52:48;16.30;32.20
25811;DHT22;13645;52.460;13.910;2023-07-09T02:55:15;16.30;39.10
25811;DHT22;13645;52.460;13.910;2023-07-09T02:57:42;16.20;46.30
25811;DHT22;13645;52.460;13.910;2023-07-09T03:00:09;16.10;57.40
25811;DHT22;13645;52.460;13.910;2023-07-09T03:02:36;16.00;65.50
25811;DHT22;13645;52.460;13.910;2023-07-09T03:05:03;15.90;73.60
25811;DHT22;13645;52.460;13.910;2023-07-09T03:07:30;15.80;85.30
25811;DHT22;13645;52.460;13.910;2023-07-09T03:09:57;15.70;92.40
25811;DHT22;13645;52.460;13.910;2023-07-09T03:12:23;15.60;89.90
25811;DHT22;13645;52.460;13.910;2023-07-09T03:14:50;15.60;96.60
25811;DHT22;13645;52.460;13.910;2023-07-09T03:17:17;15.60;96.70
25811;DHT22;13645;52.460;13.910;2023-07-09T03:19:44;15.50;99.90
25811;DHT22;13645;52.460;13.910;2023-07-09T03:22:11;15.50;99.90
25811;DHT22;13645;52.460;13.910;2023-07-09T03:24:38;15.50;99.40
25811;DHT22;13645;52.460;13.910;2023-07-09T03:27:05;15.60;92.50
25811;DHT22;13645;52.460;13.910;2023-07-09T03:29:33;15.60;93.20
25811;DHT22;13645;52.460;13.910;2023-07-09T03:32:00;15.60;95.00
25811;DHT22;13645;52.460;13.910;2023-07-09T03:34:26;15.60;98.40
25811;DHT22;13645;52.460;13.910;2023-07-09T03:36:53;15.70;99.90
25811;DHT22;13645;52.460;13.910;2023-07-09T03:39:20;15.70;99.90
25811;DHT22;13645;52.460;13.910;2023-07-09T03:41:46;15.80;99.00
25811;DHT22;13645;52.460;13.910;2023-07-09T03:44:13;15.80;96.20
25811;DHT22;13645;52.460;13.910;2023-07-09T03:46:40;15.90;94.10
25811;DHT22;13645;52.460;13.910;2023-07-09T03:49:07;15.90;95.80
25811;DHT22;13645;52.460;13.910;2023-07-09T03:51:34;15.90;96.10
25811;DHT22;13645;52.460;13.910;2023-07-09T03:54:00;15.90;99.50
25811;DHT22;13645;52.460;13.910;2023-07-09T03:56:27;16.00;99.90
25811;DHT22;13645;52.460;13.910;2023-07-09T03:58:54;16.00;99.90
25811;DHT22;13645;52.460;13.910;2023-07-09T04:01:21;16.10;99.90
25811;DHT22;13645;52.460;13.910;2023-07-09T04:03:48;16.20;99.70
25811;DHT22;13645;52.460;13.910;2023-07-09T04:06:15;16.20;98.10
25811;DHT22;13645;52.460;13.910;2023-07-09T04:08:42;16.30;93.20
25811;DHT22;13645;52.460;13.910;2023-07-09T04:11:09;16.40;98.10
25811;DHT22;13645;52.460;13.910;2023-07-09T04:13:36;16.50;99.40
25811;DHT22;13645;52.460;13.910;2023-07-09T04:16:03;16.60;96.60
25811;DHT22;13645;52.460;13.910;2023-07-09T04:18:31;16.60;99.90
25811;DHT22;13645;52.460;13.910;2023-07-09T04:20:57;16.70;92.50
25811;DHT22;13645;52.460;13.910;2023-07-09T04:23:24;16.80;80.60
25811;DHT22;13645;52.460;13.910;2023-07-09T04:25:51;16.90;75.90
25811;DHT22;13645;52.460;13.910;2023-07-09T04:28:18;17.00;79.90
25811;DHT22;13645;52.460;13.910;2023-07-09T04:30:54;17.10;92.40
25811;DHT22;13645;52.460;13.910;2023-07-09T04:33:21;17.20;88.90
25811;DHT22;13645;52.460;13.910;2023-07-09T04:35:49;17.20;91.90
25811;DHT22;13645;52.460;13.910;2023-07-09T04:38:16;17.30;95.00
25811;DHT22;13645;52.460;13.910;2023-07-09T04:40:43;17.40;88.40
25811;DHT22;13645;52.460;13.910;2023-07-09T04:43:10;17.50;83.60
25811;DHT22;13645;52.460;13.910;2023-07-09T04:45:37;17.50;68.20
25811;DHT22;13645;52.460;13.910;2023-07-09T04:48:04;17.50;68.00
25811;DHT22;13645;52.460;13.910;2023-07-09T04:50:31;17.60;69.80
25811;DHT22;13645;52.460;13.910;2023-07-09T04:52:59;17.70;51.70
25811;DHT22;13645;52.460;13.910;2023-07-09T04:55:26;17.70;51.60
25811;DHT22;13645;52.460;13.910;2023-07-09T04:57:53;17.80;46.90
25811;DHT22;13645;52.460;13.910;2023-07-09T05:00:20;17.90;34.40
25811;DHT22;13645;52.460;13.910;2023-07-09T05:02:47;18.00;45.30
25811;DHT22;13645;52.460;13.910;2023-07-09T05:05:13;18.00;43.90
25811;DHT22;13645;52.460;13.910;2023-07-09T05:07:41;18.10;39.80
25811;DHT22;13645;52.460;13.910;2023-07-09T05:10:08;18.20;37.70
25811;DHT22;13645;52.460;13.910;2023-07-09T05:12:35;18.30;34.90
25811;DHT22;13645;52.460;13.910;2023-07-09T05:15:02;18.40;38.30
25811;DHT22;13645;52.460;13.910;2023-07-09T05:17:29;18.50;35.60
25811;DHT22;13645;52.460;13.910;2023-07-09T05:19:55;18.60;35.90
25811;DHT22;13645;52.460;13.910;2023-07-09T05:22:22;18.70;29.70
25811;DHT22;13645;52.460;13.910;2023-07-09T05:24:49;18.80;28.30
25811;DHT22;13645;52.460;13.910;2023-07-09T05:27:16;18.90;28.20
25811;DHT22;13645;52.460;13.910;2023-07-09T05:29:42;19.00;23.30
25811;DHT22;13645;52.460;13.910;2023-07-09T05:32:09;19.10;22.70
25811;DHT22;13645;52.460;13.910;2023-07-09T05:34:36;19.20;14.30
25811;DHT22;13645;52.460;13.910;2023-07-09T05:37:03;19.20;10.90
25811;DHT22;13645;52.460;13.910;2023-07-09T05:39:30;19.30;11.30
25811;DHT22;13645;52.460;13.910;2023-07-09T05:41:56;19.40;9.80
25811;DHT22;13645;52.460;13.910;2023-07-09T05:44:23;19.60;3.30
25811;DHT22;13645;52.460;13.910;2023-07-09T05:46:50;19.70;1.00
25811;DHT22;13645;52.460;13.910;2023-07-09T05:49:17;19.80;1.00
25811;DHT22;13645;52.460;13.910;2023-07-09T05:51:45;19.90;1.00
25811;DHT22;13645;52.460;13.910;2023-07-09T05:54:12;20.00;1.00
25811;DHT22;13645;52.460;13.910;2023-07-09T05:56:39;20.20;1.00
25811;DHT22;13645;52.460;13.910;2023-07-09T05:59:05;20.30;1.00
25811;DHT22;13645;52.460;13.910;2023-07-09T06:01:32;20.40;1.00
25811;DHT22;13645;52.460;13.910;2023-07-09T06:03:59;20.50;1.00
25811;DHT22;13645;52.460;13.910;2023-07-09T06:06:27;20.70;1.00
25811;DHT22;13645;52.460;13.910;2023-07-09T06:08:54;20.80;1.00
25811;DHT22;13645;52.460;13.910;2023-07-09T06:11:21;20.90;1.00
25811;DHT22;13645;52.460;13.910;2023-07-09T06:13:48;21.00;1.00
25811;DHT22;13645;52.460;13.910;2023-07-09T06:16:15;21.20;1.00
25811;DHT22;13645;52.460;13.910;2023-07-09T06:18:42;21.30;1.00
25811;DHT22;13645;52.460;13.910;2023-07-09T06:21:09;21.40;1.00
25811;DHT22;13645;52.460;13.910;2023-07-09T06:23:38;21.60;1.00
25811;DHT22;13645;52.460;13.910;2023-07-09T06:26:05;21.80;1.00
25811;DHT22;13645;52.460;13.910;2023-07-09T06:28:32;22.00;1.00
25811;DHT22;13645;52.460;13.910;2023-07-09T06:30:59;22.20;1.00
25811;DHT22;13645;52.460;13.910;2023-07-09T06:33:27;22.40;1.00
25811;DHT22;13645;52.460;13.910;2023-07-09T06:35:57;22.70;1.00
25811;DHT22;13645;52.460;13.910;2023-07-09T06:38:25;22.90;1.00
25811;DHT22;13645;52.460;13.910;2023-07-09T06:40:52;23.00;1.00
25811;DHT22;13645;52.460;13.910;2023-07-09T06:43:20;23.20;1.00
25811;DHT22;13645;52.460;13.910;2023-07-09T06:45:52;23.50;1.00
25811;DHT22;13645;52.460;13.910;2023-07-09T06:48:19;23.70;1.00
25811;DHT22;13645;52.460;13.910;2023-07-09T06:50:47;23.90;1.00
25811;DHT22;13645;52.460;13.910;2023-07-09T06:53:15;24.00;1.00
25811;DHT22;13645;52.460;13.910;2023-07-09T06:55:42;24.30;1.00
25811;DHT22;13645;52.460;13.910;2023-07-09T06:58:09;24.50;1.00
25811;DHT22;13645;52.460;13.910;2023-07-09T07:00:36;24.80;1.00
25811;DHT22;13645;52.460;13.910;2023-07-09T07:03:04;25.00;1.00
25811;DHT22;13645;52.460;13.910;2023-07-09T07:05:32;25.30;1.00
25811;DHT22;13645;52.460;13.910;2023-07-09T07:07:59;25.50;1.00
25811;DHT22;13645;52.460;13.910;2023-07-09T07:10:26;25.60;1.00
25811;DHT22;13645;52.460;13.910;2023-07-09T07:12:53;25.90;1.00
25811;DHT22;13645;52.460;13.910;2023-07-09T07:15:21;26.10;1.00
25811;DHT22;13645;52.460;13.910;2023-07-09T07:17:48;26.30;1.00
25811;DHT22;13645;52.460;13.910;2023-07-09T07:20:16;26.50;1.00
25811;DHT22;13645;52.460;13.910;2023-07-09T07:22:43;26.70;1.00
25811;DHT22;13645;52.460;13.910;2023-07-09T07:25:11;26.80;99.90
25811;DHT22;13645;52.460;13.910;2023-07-09T07:27:38;27.00;99.90
25811;DHT22;13645;52.460;13.910;2023-07-09T07:30:06;27.20;99.90
25811;DHT22;13645;52.460;13.910;2023-07-09T07:32:38;27.50;99.90
25811;DHT22;13645;52.460;13.910;2023-07-09T07:35:05;27.80;99.90
25811;DHT22;13645;52.460;13.910;2023-07-09T07:37:32;27.80;1.00
25811;DHT22;13645;52.460;13.910;2023-07-09T07:39:59;28.10;1.00
25811;DHT22;13645;52.460;13.910;2023-07-09T07:42:26;28.30;1.00
25811;DHT22;13645;52.460;13.910;2023-07-09T07:44:53;28.40;1.00
25811;DHT22;13645;52.460;13.910;2023-07-09T07:47:20;28.60;99.90
25811;DHT22;13645;52.460;13.910;2023-07-09T07:49:47;28.70;97.40
25811;DHT22;13645;52.460;13.910;2023-07-09T07:52:14;29.00;99.90
25811;DHT22;13645;52.460;13.910;2023-07-09T07:54:41;29.20;99.90
25811;DHT22;13645;52.460;13.910;2023-07-09T07:57:08;29.30;1.00
25811;DHT22;13645;52.460;13.910;2023-07-09T07:59:36;29.50;99.90
25811;DHT22;13645;52.460;13.910;2023-07-09T08:02:05;29.60;99.90
25811;DHT22;13645;52.460;13.910;2023-07-09T08:04:32;29.90;1.00
25811;DHT22;13645;52.460;13.910;2023-07-09T08:06:59;30.00;1.00
25811;DHT22;13645;52.460;13.910;2023-07-09T08:09:26;30.20;99.90
25811;DHT22;13645;52.460;13.910;2023-07-09T08:11:53;30.30;99.90
25811;DHT22;13645;52.460;13.910;2023-07-09T08:14:19;30.50;99.90
25811;DHT22;13645;52.460;13.910;2023-07-09T08:16:47;30.80;1.00
25811;DHT22;13645;52.460;13.910;2023-07-09T08:19:18;31.00;70.50
25811;DHT22;13645;52.460;13.910;2023-07-09T08:21:46;31.10;99.90
25811;DHT22;13645;52.460;13.910;2023-07-09T08:24:13;31.20;10.10
25811;DHT22;13645;52.460;13.910;2023-07-09T08:26:41;31.40;84.10
25811;DHT22;13645;52.460;13.910;2023-07-09T08:29:08;31.60;1.00
25811;DHT22;13645;52.460;13.910;2023-07-09T08:31:34;31.80;1.00
25811;DHT22;13645;52.460;13.910;2023-07-09T08:34:01;31.90;99.90
25811;DHT22;13645;52.460;13.910;2023-07-09T08:36:28;31.90;99.90
25811;DHT22;13645;52.460;13.910;2023-07-09T08:38:56;32.00;99.90
25811;DHT22;13645;52.460;13.910;2023-07-09T08:41:45;32.10;99.90
25811;DHT22;13645;52.460;13.910;2023-07-09T08:44:33;32.10;99.90
25811;DHT22;13645;52.460;13.910;2023-07-09T08:47:20;32.10;99.90
25811;DHT22;13645;52.460;13.910;2023-07-09T08:49:58;32.20;99.90
25811;DHT22;13645;52.460;13.910;2023-07-09T08:55:01;32.50;1.00
25811;DHT22;13645;52.460;13.910;2023-07-09T08:57:44;32.70;27.00
25811;DHT22;13645;52.460;13.910;2023-07-09T09:00:35;32.80;91.40
25811;DHT22;13645;52.460;13.910;2023-07-09T09:05:49;33.10;1.00
25811;DHT22;13645;52.460;13.910;2023-07-09T09:11:29;33.50;1.00
25811;DHT22;13645;52.460;13.910;2023-07-09T09:14:02;33.60;1.00
25811;DHT22;13645;52.460;13.910;2023-07-09T09:16:35;33.40;1.00
25811;DHT22;13645;52.460;13.910;2023-07-09T09:19:55;33.40;1.00
25811;DHT22;13645;52.460;13.910;2023-07-09T09:22:08;33.50;1.00
25811;DHT22;13645;52.460;13.910;2023-07-09T09:27:22;33.80;99.90
25811;DHT22;13645;52.460;13.910;2023-07-09T09:29:48;33.60;99.90
25811;DHT22;13645;52.460;13.910;2023-07-09T09:34:51;33.40;99.90
25811;DHT22;13645;52.460;13.910;2023-07-09T09:37:28;33.40;99.90
25811;DHT22;13645;52.460;13.910;2023-07-09T09:39:55;33.50;99.90
25811;DHT22;13645;52.460;13.910;2023-07-09T09:42:42;33.70;99.90
25811;DHT22;13645;52.460;13.910;2023-07-09T09:45:16;34.00;99.90
25811;DHT22;13645;52.460;13.910;2023-07-09T09:47:47;34.30;99.90
25811;DHT22;13645;52.460;13.910;2023-07-09T09:50:17;34.40;99.90
25811;DHT22;13645;52.460;13.910;2023-07-09T09:52:45;34.60;99.90
25811;DHT22;13645;52.460;13.910;2023-07-09T09:55:19;34.70;99.90
25811;DHT22;13645;52.460;13.910;2023-07-09T09:57:50;34.90;99.90
25811;DHT22;13645;52.460;13.910;2023-07-09T10:00:18;35.00;99.90
25811;DHT22;13645;52.460;13.910;2023-07-09T10:02:46;35.10;35.60
25811;DHT22;13645;52.460;13.910;2023-07-09T10:05:19;35.10;8.20
25811;DHT22;13645;52.460;13.910;2023-07-09T10:08:11;35.10;1.00
25811;DHT22;13645;52.460;13.910;2023-07-09T10:10:42;35.00;1.00
25811;DHT22;13645;52.460;13.910;2023-07-09T10:13:29;35.10;1.00
25811;DHT22;13645;52.460;13.910;2023-07-09T10:16:10;35.10;1.00
25811;DHT22;13645;52.460;13.910;2023-07-09T10:21:15;35.20;1.00
25811;DHT22;13645;52.460;13.910;2023-07-09T10:26:30;35.40;1.00
25811;DHT22;13645;52.460;13.910;2023-07-09T10:39:41;35.70;1.00
25811;DHT22;13645;52.460;13.910;2023-07-09T10:42:57;35.90;1.00
25811;DHT22;13645;52.460;13.910;2023-07-09T10:45:29;35.90;1.00
25811;DHT22;13645;52.460;13.910;2023-07-09T10:48:04;35.80;1.00
25811;DHT22;13645;52.460;13.910;2023-07-09T10:50:37;35.90;1.00
25811;DHT22;13645;52.460;13.910;2023-07-09T10:55:56;35.90;1.00
25811;DHT22;13645;52.460;13.910;2023-07-09T11:00:55;35.90;99.90
25811;DHT22;13645;52.460;13.910;2023-07-09T11:03:47;36.10;1.00
25811;DHT22;13645;52.460;13.910;2023-07-09T11:08:57;36.30;1.00
25811;DHT22;13645;52.460;13.910;2023-07-09T11:11:32;36.40;99.90
25811;DHT22;13645;52.460;13.910;2023-07-09T11:14:04;36.60;99.90
25811;DHT22;13645;52.460;13.910;2023-07-09T11:16:39;36.80;99.90
25811;DHT22;13645;52.460;13.910;2023-07-09T11:19:15;36.90;99.90
25811;DHT22;13645;52.460;13.910;2023-07-09T11:22:16;36.90;99.90
25811;DHT22;13645;52.460;13.910;2023-07-09T11:25:11;36.90;99.90
25811;DHT22;13645;52.460;13.910;2023-07-09T11:27:52;36.90;99.90
25811;DHT22;13645;52.460;13.910;2023-07-09T11:30:23;36.90;99.90
25811;DHT22;13645;52.460;13.910;2023-07-09T11:33:00;36.80;99.90
25811;DHT22;13645;52.460;13.910;2023-07-09T11:35:51;36.80;99.90
25811;DHT22;13645;52.460;13.910;2023-07-09T11:38:24;36.80;99.90
25811;DHT22;13645;52.460;13.910;2023-07-09T11:40:55;36.90;99.90
25811;DHT22;13645;52.460;13.910;2023-07-09T11:43:32;36.80;99.90
25811;DHT22;13645;52.460;13.910;2023-07-09T11:46:13;36.80;99.90
25811;DHT22;13645;52.460;13.910;2023-07-09T11:48:43;36.80;99.90
25811;DHT22;13645;52.460;13.910;2023-07-09T11:51:16;36.90;99.90
25811;DHT22;13645;52.460;13.910;2023-07-09T11:53:50;36.90;99.90
25811;DHT22;13645;52.460;13.910;2023-07-09T11:56:23;36.90;99.90
25811;DHT22;13645;52.460;13.910;2023-07-09T11:58:52;36.90;99.90
25811;DHT22;13645;52.460;13.910;2023-07-09T12:01:23;36.90;99.90
25811;DHT22;13645;52.460;13.910;2023-07-09T12:03:50;37.00;99.90
25811;DHT22;13645;52.460;13.910;2023-07-09T12:06:23;36.80;99.90
25811;DHT22;13645;52.460;13.910;2023-07-09T12:08:51;36.70;99.90
25811;DHT22;13645;52.460;13.910;2023-07-09T12:11:33;36.90;99.90
25811;DHT22;13645;52.460;13.910;2023-07-09T12:16:36;37.00;99.90
25811;DHT22;13645;52.460;13.910;2023-07-09T12:19:03;37.00;99.90
25811;DHT22;13645;52.460;13.910;2023-07-09T12:21:31;37.00;99.90
25811;DHT22;13645;52.460;13.910;2023-07-09T12:23:59;36.90;99.90
25811;DHT22;13645;52.460;13.910;2023-07-09T12:26:30;36.70;99.90
25811;DHT22;13645;52.460;13.910;2023-07-09T12:28:58;36.80;99.90
25811;DHT22;13645;52.460;13.910;2023-07-09T12:31:28;36.90;99.90
25811;DHT22;13645;52.460;13.910;2023-07-09T12:33:58;36.40;99.90
25811;DHT22;13645;52.460;13.910;2023-07-09T12:36:26;36.30;99.90
25811;DHT22;13645;52.460;13.910;2023-07-09T12:39:00;36.60;99.90
25811;DHT22;13645;52.460;13.910;2023-07-09T12:41:38;36.60;99.90
25811;DHT22;13645;52.460;13.910;2023-07-09T12:44:09;36.90;99.90
25811;DHT22;13645;52.460;13.910;2023-07-09T12:46:40;36.80;99.90
25811;DHT22;13645;52.460;13.910;2023-07-09T12:49:27;36.80;99.90
25811;DHT22;13645;52.460;13.910;2023-07-09T12:52:00;36.90;99.90
25811;DHT22;13645;52.460;13.910;2023-07-09T12:54:30;36.90;99.90
25811;DHT22;13645;52.460;13.910;2023-07-09T12:56:59;36.90;99.90
25811;DHT22;13645;52.460;13.910;2023-07-09T12:59:28;36.90;99.90
25811;DHT22;13645;52.460;13.910;2023-07-09T13:02:14;36.90;99.90
25811;DHT22;13645;52.460;13.910;2023-07-09T13:04:41;37.00;99.90
25811;DHT22;13645;52.460;13.910;2023-07-09T13:07:38;37.10;99.90
25811;DHT22;13645;52.460;13.910;2023-07-09T13:10:23;37.10;99.90
25811;DHT22;13645;52.460;13.910;2023-07-09T13:12:55;37.00;99.90
25811;DHT22;13645;52.460;13.910;2023-07-09T13:15:26;36.70;99.90
25811;DHT22;13645;52.460;13.910;2023-07-09T13:18:01;36.70;99.90
25811;DHT22;13645;52.460;13.910;2023-07-09T13:20:30;36.70;99.90
25811;DHT22;13645;52.460;13.910;2023-07-09T13:22:58;36.30;99.90
25811;DHT22;13645;52.460;13.910;2023-07-09T13:25:25;36.20;99.90
25811;DHT22;13645;52.460;13.910;2023-07-09T13:28:18;36.00;99.90
25811;DHT22;13645;52.460;13.910;2023-07-09T13:30:48;36.10;99.90
25811;DHT22;13645;52.460;13.910;2023-07-09T13:33:16;36.30;99.90
25811;DHT22;13645;52.460;13.910;2023-07-09T13:35:45;36.40;99.90
25811;DHT22;13645;52.460;13.910;2023-07-09T13:38:17;36.50;99.90
25811;DHT22;13645;52.460;13.910;2023-07-09T13:40:46;36.70;99.90
25811;DHT22;13645;52.460;13.910;2023-07-09T13:43:16;36.60;99.90
25811;DHT22;13645;52.460;13.910;2023-07-09T13:45:43;36.40;99.90
25811;DHT22;13645;52.460;13.910;2023-07-09T13:48:18;36.30;99.90
25811;DHT22;13645;52.460;13.910;2023-07-09T13:50:48;36.20;99.90
25811;DHT22;13645;52.460;13.910;2023-07-09T13:53:24;36.30;99.90
25811;DHT22;13645;52.460;13.910;2023-07-09T13:55:53;36.20;99.90
25811;DHT22;13645;52.460;13.910;2023-07-09T13:58:22;36.30;99.90
25811;DHT22;13645;52.460;13.910;2023-07-09T14:00:50;36.30;99.90
25811;DHT22;13645;52.460;13.910;2023-07-09T14:03:26;36.20;99.90
25811;DHT22;13645;52.460;13.910;2023-07-09T14:05:53;36.30;99.90
25811;DHT22;13645;52.460;13.910;2023-07-09T14:08:21;36.30;99.90
25811;DHT22;13645;52.460;13.910;2023-07-09T14:10:48;36.40;99.90
25811;DHT22;13645;52.460;13.910;2023-07-09T14:13:19;36.40;99.90
25811;DHT22;13645;52.460;13.910;2023-07-09T14:15:47;36.40;99.90
25811;DHT22;13645;52.460;13.910;2023-07-09T14:18:20;36.10;99.90
25811;DHT22;13645;52.460;13.910;2023-07-09T14:20:47;36.00;99.90
25811;DHT22;13645;52.460;13.910;2023-07-09T14:23:16;36.00;99.90
25811;DHT22;13645;52.460;13.910;2023-07-09T14:25:44;35.80;99.90
25811;DHT22;13645;52.460;13.910;2023-07-09T14:28:13;35.70;99.90
25811;DHT22;13645;52.460;13.910;2023-07-09T14:30:41;35.80;99.90
25811;DHT22;13645;52.460;13.910;2023-07-09T14:33:18;35.70;99.90
25811;DHT22;13645;52.460;13.910;2023-07-09T14:35:46;35.50;99.90
25811;DHT22;13645;52.460;13.910;2023-07-09T14:38:19;35.40;99.90
25811;DHT22;13645;52.460;13.910;2023-07-09T14:40:47;35.30;99.90
25811;DHT22;13645;52.460;13.910;2023-07-09T14:43:15;35.30;99.90
25811;DHT22;13645;52.460;13.910;2023-07-09T14:45:42;35.20;99.90
25811;DHT22;13645;52.460;13.910;2023-07-09T14:48:16;35.20;99.90
25811;DHT22;13645;52.460;13.910;2023-07-09T14:50:44;35.20;99.90
25811;DHT22;13645;52.460;13.910;2023-07-09T14:53:24;35.10;99.90
25811;DHT22;13645;52.460;13.910;2023-07-09T14:55:54;35.10;99.90
25811;DHT22;13645;52.460;13.910;2023-07-09T14:58:23;34.90;99.90
25811;DHT22;13645;52.460;13.910;2023-07-09T15:00:50;35.00;99.90
25811;DHT22;13645;52.460;13.910;2023-07-09T15:03:25;34.80;99.90
25811;DHT22;13645;52.460;13.910;2023-07-09T15:05:53;34.90;99.90
25811;DHT22;13645;52.460;13.910;2023-07-09T15:08:23;34.50;99.90
25811;DHT22;13645;52.460;13.910;2023-07-09T15:10:52;34.60;99.90
25811;DHT22;13645;52.460;13.910;2023-07-09T15:13:39;34.60;99.90
25811;DHT22;13645;52.460;13.910;2023-07-09T15:16:08;34.30;99.90
25811;DHT22;13645;52.460;13.910;2023-07-09T15:18:35;34.30;99.90
25811;DHT22;13645;52.460;13.910;2023-07-09T15:21:04;34.20;99.90
25811;DHT22;13645;52.460;13.910;2023-07-09T15:23:36;34.20;99.90
25811;DHT22;13645;52.460;13.910;2023-07-09T15:26:12;34.10;99.90
25811;DHT22;13645;52.460;13.910;2023-07-09T15:28:39;34.00;99.90
25811;DHT22;13645;52.460;13.910;2023-07-09T15:31:10;33.90;99.90
25811;DHT22;13645;52.460;13.910;2023-07-09T15:33:37;33.90;99.90
25811;DHT22;13645;52.460;13.910;2023-07-09T15:36:10;33.90;99.90
25811;DHT22;13645;52.460;13.910;2023-07-09T15:38:38;33.80;99.90
25811;DHT22;13645;52.460;13.910;2023-07-09T15:41:14;33.80;99.90
25811;DHT22;13645;52.460;13.910;2023-07-09T15:43:42;33.80;99.90
25811;DHT22;13645;52.460;13.910;2023-07-09T15:46:16;33.80;99.90
25811;DHT22;13645;52.460;13.910;2023-07-09T15:48:45;33.60;99.90
25811;DHT22;13645;52.460;13.910;2023-07-09T15:51:12;33.50;99.90
25811;DHT22;13645;52.460;13.910;2023-07-09T15:53:38;33.40;99.90
25811;DHT22;13645;52.460;13.910;2023-07-09T15:56:16;33.20;99.90
25811;DHT22;13645;52.460;13.910;2023-07-09T15:58:45;33.10;99.90
25811;DHT22;13645;52.460;13.910;2023-07-09T16:01:14;33.00;99.90
25811;DHT22;13645;52.460;13.910;2023-07-09T16:03:47;32.90;99.90
25811;DHT22;13645;52.460;13.910;2023-07-09T16:06:16;32.70;99.90
25811;DHT22;13645;52.460;13.910;2023-07-09T16:10:42;32.70;99.90
25811;DHT22;13645;52.460;13.910;2023-07-09T16:13:18;32.70;99.90
25811;DHT22;13645;52.460;13.910;2023-07-09T16:15:47;32.60;99.90
25811;DHT22;13645;52.460;13.910;2023-07-09T16:18:13;32.40;99.90
25811;DHT22;13645;52.460;13.910;2023-07-09T16:20:42;32.40;99.90
25811;DHT22;13645;52.460;13.910;2023-07-09T16:23:20;32.30;99.90